createdAt,value
2022-09-13T00:01:23.621Z,6.70
2022-09-13T00:03:52.198Z,7.60
2022-09-13T00:06:22.131Z,7.60
2022-09-13T00:08:50.617Z,8.20
2022-09-13T00:11:23.909Z,8.20
2022-09-13T00:13:55.191Z,9.00
2022-09-13T00:16:27.725Z,8.60
2022-09-13T00:18:56.847Z,7.50
2022-09-13T00:21:25.278Z,7.30
2022-09-13T00:23:55.434Z,8.60
2022-09-13T00:26:28.816Z,7.20
2022-09-13T00:28:59.053Z,7.40
2022-09-13T00:31:29.083Z,7.00
2022-09-13T00:34:01.000Z,6.90
2022-09-13T00:36:29.675Z,6.80
2022-09-13T00:39:00.140Z,7.60
2022-09-13T00:41:28.715Z,7.10
2022-09-13T00:44:02.480Z,6.70
2022-09-13T00:46:48.027Z,6.30
2022-09-13T00:49:20.808Z,6.90
2022-09-13T00:51:55.827Z,7.40
2022-09-13T00:54:29.542Z,6.30
2022-09-13T00:57:02.453Z,5.30
2022-09-13T00:59:38.163Z,6.40
2022-09-13T01:02:07.219Z,7.00
2022-09-13T01:04:37.146Z,7.10
2022-09-13T01:07:09.852Z,8.20
2022-09-13T01:09:44.153Z,7.30
2022-09-13T01:12:49.573Z,8.80
2022-09-13T01:15:17.887Z,8.70
2022-09-13T01:17:46.567Z,7.70
2022-09-13T01:20:15.717Z,7.40
2022-09-13T01:22:46.834Z,7.60
2022-09-13T01:25:33.717Z,8.00
2022-09-13T01:28:04.607Z,7.70
2022-09-13T01:30:54.666Z,7.20
2022-09-13T01:33:45.299Z,7.00
2022-09-13T01:37:09.845Z,7.50
2022-09-13T01:40:29.421Z,7.10
2022-09-13T01:43:22.305Z,6.60
2022-09-13T01:46:26.463Z,7.80
2022-09-13T01:49:17.096Z,7.30
2022-09-13T01:52:01.664Z,6.90
2022-09-13T01:54:49.075Z,6.60
2022-09-13T01:57:23.159Z,6.70
2022-09-13T02:00:08.081Z,5.30
2022-09-13T02:03:08.409Z,7.50
2022-09-13T02:05:47.717Z,7.40
2022-09-13T02:08:29.091Z,6.40
2022-09-13T02:11:09.067Z,7.50
2022-09-13T02:14:02.570Z,6.80
2022-09-13T02:17:04.163Z,7.10
2022-09-13T02:19:54.381Z,6.60
2022-09-13T02:22:37.731Z,6.40
2022-09-13T02:25:16.037Z,5.80
2022-09-13T02:27:50.311Z,6.80
2022-09-13T02:30:19.688Z,5.80
2022-09-13T02:33:49.865Z,7.70
2022-09-13T02:36:29.627Z,7.50
2022-09-13T02:39:02.548Z,6.70
2022-09-13T02:41:54.627Z,8.00
2022-09-13T02:44:35.325Z,7.20
2022-09-13T02:47:12.176Z,7.00
2022-09-13T02:50:07.251Z,7.10
2022-09-13T02:52:58.491Z,6.50
2022-09-13T02:55:49.247Z,7.00
2022-09-13T02:58:47.043Z,6.50
2022-09-13T03:01:15.633Z,6.60
2022-09-13T03:03:44.821Z,6.70
2022-09-13T03:06:13.312Z,6.40
2022-09-13T03:08:41.621Z,6.90
2022-09-13T03:11:36.171Z,7.30
2022-09-13T03:14:39.845Z,7.30
2022-09-13T03:17:17.076Z,7.20
2022-09-13T03:19:59.636Z,6.70
2022-09-13T03:22:43.612Z,7.10
2022-09-13T03:25:44.170Z,7.70
2022-09-13T03:29:08.849Z,8.10
2022-09-13T03:32:15.615Z,8.50
2022-09-13T03:35:04.582Z,6.50
2022-09-13T03:37:57.651Z,7.30
2022-09-13T03:40:40.749Z,6.70
2022-09-13T03:43:42.547Z,6.80
2022-09-13T03:46:50.217Z,6.60
2022-09-13T03:49:23.210Z,7.10
2022-09-13T03:51:52.939Z,6.40
2022-09-13T03:54:32.541Z,7.20
2022-09-13T03:57:21.402Z,7.60
2022-09-13T03:59:54.094Z,5.40
2022-09-13T04:02:25.673Z,5.10
2022-09-13T04:04:54.158Z,5.80
2022-09-13T04:07:25.169Z,6.30
2022-09-13T04:09:53.734Z,7.20
2022-09-13T04:12:22.215Z,6.30
2022-09-13T04:14:50.496Z,6.10
2022-09-13T04:17:18.813Z,6.50
2022-09-13T04:19:47.185Z,6.30
2022-09-13T04:22:16.042Z,7.30
2022-09-13T04:24:44.378Z,6.80
2022-09-13T04:27:13.478Z,6.40
2022-09-13T04:29:41.783Z,6.50
2022-09-13T04:32:10.963Z,6.50
2022-09-13T04:34:39.303Z,7.40
2022-09-13T04:37:09.234Z,7.00
2022-09-13T04:39:37.521Z,7.20
2022-09-13T04:42:07.444Z,6.50
2022-09-13T04:44:36.015Z,6.80
2022-09-13T04:47:04.772Z,6.40
2022-09-13T04:49:34.100Z,7.10
2022-09-13T04:52:02.806Z,6.10
2022-09-13T04:54:31.318Z,5.60
2022-09-13T04:56:59.748Z,7.70
2022-09-13T04:59:28.043Z,6.40
2022-09-13T05:01:56.337Z,7.20
2022-09-13T05:04:24.699Z,7.10
2022-09-13T05:06:52.950Z,7.00
2022-09-13T05:09:21.229Z,7.60
2022-09-13T05:11:49.763Z,6.60
2022-09-13T05:14:18.049Z,7.90
2022-09-13T05:16:46.316Z,7.80
2022-09-13T05:19:14.732Z,8.00
2022-09-13T05:21:43.102Z,8.10
2022-09-13T05:24:11.914Z,8.40
2022-09-13T05:26:40.320Z,6.90
2022-09-13T05:29:08.829Z,6.50
2022-09-13T05:31:42.204Z,7.00
2022-09-13T05:34:15.181Z,7.50
2022-09-13T05:36:44.473Z,9.10
2022-09-13T05:42:06.333Z,5.80
2022-09-13T05:44:34.587Z,6.00
2022-09-13T05:47:02.949Z,6.70
2022-09-13T05:49:31.574Z,5.90
2022-09-13T05:52:00.035Z,6.20
2022-09-13T05:54:28.627Z,5.50
2022-09-13T05:56:57.696Z,6.40
2022-09-13T05:59:26.059Z,5.80
2022-09-13T06:02:10.604Z,5.60
2022-09-13T06:04:39.011Z,6.20
2022-09-13T06:07:13.638Z,6.50
2022-09-13T06:09:44.134Z,5.20
2022-09-13T06:12:12.448Z,5.20
2022-09-13T06:14:40.767Z,5.00
2022-09-13T06:17:09.103Z,4.50
2022-09-13T06:19:37.548Z,4.50
2022-09-13T06:25:42.060Z,4.60
2022-09-13T06:28:10.827Z,4.80
2022-09-13T06:30:39.139Z,4.60
2022-09-13T06:33:07.451Z,5.00
2022-09-13T06:35:37.218Z,4.60
2022-09-13T06:38:10.528Z,4.30
2022-09-13T06:40:38.891Z,4.00
2022-09-13T06:43:07.256Z,4.10
2022-09-13T06:45:35.607Z,4.30
2022-09-13T06:48:04.132Z,4.50
2022-09-13T06:50:32.378Z,4.40
2022-09-13T06:53:00.666Z,4.40
2022-09-13T06:55:29.158Z,3.70
2022-09-13T06:57:59.011Z,4.10
2022-09-13T07:00:27.242Z,4.60
2022-09-13T07:02:55.597Z,4.70
2022-09-13T07:05:23.815Z,3.80
2022-09-13T07:07:52.166Z,4.30
2022-09-13T07:10:20.464Z,3.90
2022-09-13T07:12:48.704Z,3.90
2022-09-13T07:15:16.958Z,3.40
2022-09-13T07:17:45.228Z,3.70
2022-09-13T07:20:13.548Z,3.70
2022-09-13T07:22:41.856Z,3.60
2022-09-13T07:25:10.377Z,3.70
2022-09-13T07:27:55.662Z,4.20
2022-09-13T07:30:26.779Z,3.90
2022-09-13T07:32:55.069Z,4.10
2022-09-13T07:35:23.392Z,3.80
2022-09-13T07:37:51.941Z,4.10
2022-09-13T07:40:20.303Z,4.10
2022-09-13T07:42:48.607Z,3.50
2022-09-13T07:45:28.578Z,3.40
2022-09-13T07:47:57.003Z,3.10
2022-09-13T07:50:25.255Z,3.70
2022-09-13T07:52:53.864Z,3.40
2022-09-13T07:55:24.500Z,3.30
2022-09-13T07:57:54.538Z,3.50
2022-09-13T08:00:25.251Z,3.20
2022-09-13T08:02:56.223Z,3.30
2022-09-13T08:05:27.611Z,3.40
2022-09-13T08:07:58.880Z,3.40
2022-09-13T08:10:29.135Z,3.80
2022-09-13T08:12:58.529Z,3.60
2022-09-13T08:15:27.571Z,3.40
2022-09-13T08:17:55.896Z,3.00
2022-09-13T08:21:18.830Z,2.70
2022-09-13T08:23:47.479Z,3.10
2022-09-13T08:26:17.304Z,3.70
2022-09-13T08:28:45.673Z,3.30
2022-09-13T08:31:18.145Z,3.40
2022-09-13T08:33:50.814Z,2.70
2022-09-13T08:36:23.844Z,2.90
2022-09-13T08:38:57.758Z,2.90
2022-09-13T08:44:56.110Z,3.00
2022-09-13T08:47:47.024Z,3.40
2022-09-13T08:50:19.642Z,3.40
2022-09-13T09:05:24.113Z,3.40
2022-09-13T09:08:27.454Z,3.30
2022-09-13T09:10:59.143Z,2.80
2022-09-13T09:17:15.442Z,2.60
2022-09-13T09:22:36.398Z,2.90
2022-09-13T09:25:05.264Z,2.90
2022-09-13T09:27:33.883Z,3.10
2022-09-13T09:30:02.163Z,2.70
2022-09-13T09:32:48.283Z,2.70
2022-09-13T09:35:37.925Z,2.90
2022-09-13T09:38:31.306Z,2.50
2022-09-13T09:41:06.851Z,2.30
2022-09-13T09:43:52.518Z,2.90
2022-09-13T09:46:27.521Z,2.60
2022-09-13T09:49:34.150Z,2.60
2022-09-13T09:52:06.860Z,2.30
2022-09-13T09:54:36.749Z,2.70
2022-09-13T09:57:08.231Z,2.90
2022-09-13T09:59:37.176Z,2.60
2022-09-13T10:02:25.820Z,2.90
2022-09-13T10:05:01.204Z,2.80
2022-09-13T10:07:35.994Z,2.40
2022-09-13T10:12:57.476Z,2.30
2022-09-13T10:18:43.341Z,2.30
2022-09-13T10:21:19.036Z,2.50
2022-09-13T10:23:50.520Z,2.70
2022-09-13T10:26:25.892Z,2.10
2022-09-13T10:29:06.982Z,2.20
2022-09-13T10:31:43.206Z,2.20
2022-09-13T10:34:21.757Z,2.40
2022-09-13T10:37:03.081Z,2.80
2022-09-13T10:39:36.499Z,2.50
2022-09-13T10:42:08.744Z,2.80
2022-09-13T10:45:26.382Z,2.90
2022-09-13T10:48:19.011Z,2.90
2022-09-13T10:51:06.108Z,3.30
2022-09-13T10:53:42.734Z,2.50
2022-09-13T10:56:26.812Z,2.50
2022-09-13T10:59:26.071Z,2.80
2022-09-13T11:02:35.355Z,2.20
2022-09-13T11:05:29.053Z,3.20
2022-09-13T11:08:28.375Z,2.60
2022-09-13T11:11:14.028Z,2.30
2022-09-13T11:13:53.159Z,2.30
2022-09-13T11:16:38.225Z,2.00
2022-09-13T11:19:48.293Z,2.40
2022-09-13T11:22:34.423Z,2.40
2022-09-13T11:25:26.024Z,2.50
2022-09-13T11:28:09.214Z,2.40
2022-09-13T11:31:14.049Z,3.00
2022-09-13T11:34:19.771Z,2.70
2022-09-13T11:37:19.687Z,2.30
2022-09-13T11:40:14.143Z,2.50
2022-09-13T11:43:16.222Z,3.00
2022-09-13T11:45:54.808Z,2.80
2022-09-13T11:48:48.884Z,2.40
2022-09-13T11:51:42.102Z,2.60
2022-09-13T11:55:03.890Z,2.80
2022-09-13T11:57:41.614Z,2.60
2022-09-13T12:00:20.419Z,2.60
2022-09-13T12:05:54.684Z,2.50
2022-09-13T12:08:36.759Z,3.00
2022-09-13T12:11:16.301Z,2.10
2022-09-13T12:13:58.534Z,2.70
2022-09-13T12:16:52.604Z,2.50
2022-09-13T12:19:28.344Z,2.70
2022-09-13T12:22:01.008Z,3.40
2022-09-13T12:24:50.559Z,3.10
2022-09-13T12:27:42.835Z,3.40
2022-09-13T12:30:32.563Z,3.40
2022-09-13T12:33:00.930Z,3.00
2022-09-13T12:35:52.703Z,2.70
2022-09-13T12:42:18.254Z,3.00
2022-09-13T12:45:06.286Z,3.20
2022-09-13T12:48:00.075Z,3.10
2022-09-13T12:50:43.462Z,3.10
2022-09-13T12:53:27.626Z,2.90
2022-09-13T12:56:45.281Z,2.40
2022-09-13T13:05:35.191Z,3.40
2022-09-13T13:08:20.494Z,3.00
2022-09-13T13:13:36.065Z,2.90
2022-09-13T13:16:29.151Z,3.90
2022-09-13T13:19:03.311Z,3.50
2022-09-13T13:21:40.374Z,4.00
2022-09-13T13:24:17.624Z,3.50
2022-09-13T13:26:55.030Z,2.80
2022-09-13T13:29:26.635Z,4.10
2022-09-13T13:32:03.498Z,3.40
2022-09-13T13:34:49.371Z,3.30
2022-09-13T13:37:20.375Z,4.10
2022-09-13T13:40:20.518Z,3.10
2022-09-13T13:42:49.422Z,3.10
2022-09-13T13:45:26.046Z,3.60
2022-09-13T13:48:17.581Z,3.10
2022-09-13T13:51:26.805Z,2.80
2022-09-13T13:54:02.947Z,3.10
2022-09-13T13:56:50.073Z,2.80
2022-09-13T13:59:32.094Z,2.60
2022-09-13T14:02:01.992Z,3.00
2022-09-13T14:05:00.788Z,2.90
2022-09-13T14:07:41.023Z,2.70
2022-09-13T14:10:24.809Z,3.40
2022-09-13T14:13:28.354Z,3.00
2022-09-13T14:16:10.113Z,2.70
2022-09-13T14:19:29.712Z,3.20
2022-09-13T14:22:25.297Z,2.80
2022-09-13T14:27:27.075Z,3.20
2022-09-13T14:32:57.178Z,3.10
2022-09-13T14:35:38.504Z,2.90
2022-09-13T14:41:29.595Z,3.10
2022-09-13T14:44:23.750Z,4.30
2022-09-13T14:47:24.664Z,3.70
2022-09-13T14:50:01.985Z,3.30
2022-09-13T14:52:38.445Z,3.00
2022-09-13T14:55:18.945Z,3.70
2022-09-13T14:57:53.696Z,3.00
2022-09-13T15:02:59.901Z,3.30
2022-09-13T15:05:33.414Z,3.10
2022-09-13T15:08:33.526Z,3.20
2022-09-13T15:11:06.624Z,3.00
2022-09-13T15:13:35.035Z,2.90
2022-09-13T15:16:30.018Z,3.20
2022-09-13T15:21:51.529Z,3.70
2022-09-13T15:24:31.939Z,2.50
2022-09-13T15:27:07.466Z,2.70
2022-09-13T15:29:37.618Z,2.40
2022-09-13T15:32:07.205Z,3.00
2022-09-13T15:34:46.598Z,2.70
2022-09-13T15:37:15.641Z,2.90
2022-09-13T15:42:53.156Z,2.40
2022-09-13T15:45:22.785Z,2.70
2022-09-13T15:47:52.791Z,2.60
2022-09-13T15:50:33.628Z,2.40
2022-09-13T15:53:02.042Z,2.70
2022-09-13T15:55:31.410Z,3.00
2022-09-13T15:57:59.715Z,3.00
2022-09-13T16:00:28.543Z,2.40
2022-09-13T16:02:57.033Z,2.40
2022-09-13T16:05:25.397Z,2.90
2022-09-13T16:07:58.808Z,2.50
2022-09-13T16:10:28.281Z,2.60
2022-09-13T16:12:56.604Z,3.00
2022-09-13T16:15:25.006Z,2.70
2022-09-13T16:17:53.248Z,2.60
2022-09-13T16:20:22.351Z,2.80
2022-09-13T16:22:50.574Z,3.00
2022-09-13T16:25:19.080Z,3.10
2022-09-13T16:27:47.546Z,2.50
2022-09-13T16:30:19.846Z,2.80
2022-09-13T16:32:49.090Z,3.30
2022-09-13T16:35:17.688Z,2.80
2022-09-13T16:37:48.133Z,2.90
2022-09-13T16:40:16.936Z,3.60
2022-09-13T16:42:46.233Z,3.40
2022-09-13T16:45:15.129Z,2.90
2022-09-13T16:47:43.520Z,3.00
2022-09-13T16:50:11.979Z,3.40
2022-09-13T16:52:41.031Z,3.30
2022-09-13T16:55:09.964Z,3.10
2022-09-13T16:57:38.575Z,2.90
2022-09-13T17:00:10.436Z,3.30
2022-09-13T17:02:39.167Z,3.60
2022-09-13T17:05:08.506Z,3.50
2022-09-13T17:07:37.435Z,4.30
2022-09-13T17:10:09.188Z,4.20
2022-09-13T17:12:38.849Z,4.30
2022-09-13T17:15:07.912Z,3.40
2022-09-13T17:17:36.440Z,4.10
2022-09-13T17:20:10.365Z,4.20
2022-09-13T17:22:39.582Z,4.40
2022-09-13T17:25:08.949Z,5.80
2022-09-13T17:27:37.387Z,4.90
2022-09-13T17:30:06.866Z,4.30
2022-09-13T17:32:35.330Z,4.60
2022-09-13T17:35:04.009Z,4.00
2022-09-13T17:37:32.314Z,3.80
2022-09-13T17:40:00.913Z,4.00
2022-09-13T17:42:29.906Z,6.10
2022-09-13T17:44:58.299Z,6.00
2022-09-13T17:47:26.612Z,3.90
2022-09-13T17:49:56.139Z,4.10
2022-09-13T17:52:24.669Z,4.70
2022-09-13T17:54:53.065Z,5.10
2022-09-13T17:57:21.814Z,5.00
2022-09-13T17:59:50.609Z,4.90
2022-09-13T18:02:18.981Z,4.50
2022-09-13T18:04:50.776Z,5.10
2022-09-13T18:07:19.679Z,5.00
2022-09-13T18:09:47.993Z,4.70
2022-09-13T18:12:16.567Z,4.80
2022-09-13T18:14:44.958Z,4.30
2022-09-13T18:17:13.395Z,5.00
2022-09-13T18:19:47.038Z,4.80
2022-09-13T18:22:15.912Z,5.10
2022-09-13T18:24:44.589Z,4.50
2022-09-13T18:27:13.083Z,4.50
2022-09-13T18:29:42.042Z,5.30
2022-09-13T18:32:10.561Z,4.60
2022-09-13T18:34:38.868Z,4.60
2022-09-13T18:37:07.198Z,5.10
2022-09-13T18:39:36.425Z,4.30
2022-09-13T18:42:04.870Z,5.10
2022-09-13T18:44:34.052Z,4.00
2022-09-13T18:47:04.789Z,4.70
2022-09-13T18:49:33.068Z,5.30
2022-09-13T18:52:01.537Z,4.30
2022-09-13T18:54:29.781Z,4.90
2022-09-13T18:57:00.069Z,5.60
2022-09-13T18:59:30.317Z,4.80
2022-09-13T19:01:59.107Z,5.10
2022-09-13T19:04:27.428Z,5.20
2022-09-13T19:06:58.702Z,5.50
2022-09-13T19:09:27.022Z,4.90
2022-09-13T19:11:55.357Z,4.80
2022-09-13T19:14:27.608Z,5.00
2022-09-13T19:17:01.165Z,4.90
2022-09-13T19:19:31.019Z,5.60
2022-09-13T19:21:59.364Z,5.90
2022-09-13T19:24:28.447Z,5.40
2022-09-13T19:26:56.720Z,5.30
2022-09-13T19:29:25.188Z,5.50
2022-09-13T19:31:55.868Z,4.20
2022-09-13T19:34:24.405Z,4.80
2022-09-13T19:36:57.840Z,5.00
2022-09-13T19:39:30.071Z,4.80
2022-09-13T19:42:00.548Z,4.90
2022-09-13T19:44:29.081Z,4.60
2022-09-13T19:47:42.799Z,5.20
2022-09-13T19:49:49.526Z,4.80
2022-09-13T19:52:18.041Z,4.60
2022-09-13T19:54:46.301Z,4.30
2022-09-13T19:57:14.702Z,5.10
2022-09-13T19:59:43.860Z,4.60
2022-09-13T20:02:12.183Z,4.80
2022-09-13T20:04:41.017Z,5.10
2022-09-13T20:07:12.188Z,4.30
2022-09-13T20:09:42.311Z,4.90
2022-09-13T20:12:11.435Z,4.90
2022-09-13T20:14:40.140Z,4.80
2022-09-13T20:17:08.413Z,5.60
2022-09-13T20:19:43.567Z,6.00
2022-09-13T20:22:15.298Z,5.10
2022-09-13T20:24:43.599Z,5.20
2022-09-13T20:27:12.345Z,5.10
2022-09-13T20:29:41.530Z,5.20
2022-09-13T20:32:11.245Z,5.60
2022-09-13T20:34:39.717Z,5.00
2022-09-13T20:37:08.059Z,5.40
2022-09-13T20:39:36.361Z,5.00
2022-09-13T20:42:05.059Z,6.00
2022-09-13T20:44:33.342Z,5.30
2022-09-13T20:47:02.101Z,5.70
2022-09-13T20:49:30.418Z,5.60
2022-09-13T20:51:59.301Z,4.90
2022-09-13T20:54:27.586Z,5.80
2022-09-13T20:56:56.355Z,5.70
2022-09-13T20:59:25.389Z,6.50
2022-09-13T21:01:54.050Z,5.60
2022-09-13T21:04:22.658Z,5.60
2022-09-13T21:07:16.954Z,6.10
2022-09-13T21:09:45.212Z,6.20
2022-09-13T21:12:15.506Z,6.50
2022-09-13T21:14:43.904Z,8.20
2022-09-13T21:17:12.871Z,6.80
2022-09-13T21:19:41.177Z,5.70
2022-09-13T21:22:10.352Z,6.80
2022-09-13T21:24:38.731Z,5.40
2022-09-13T21:27:07.136Z,5.00
2022-09-13T21:29:35.605Z,5.70
2022-09-13T21:32:04.070Z,5.40
2022-09-13T21:34:32.395Z,5.50
2022-09-13T21:37:00.647Z,5.80
2022-09-13T21:39:30.035Z,5.80
2022-09-13T21:41:58.301Z,6.00
2022-09-13T21:44:28.079Z,5.90
2022-09-13T21:46:56.399Z,5.60
2022-09-13T21:49:24.733Z,5.50
2022-09-13T21:51:54.218Z,8.20
2022-09-13T21:54:22.581Z,6.10
2022-09-13T21:56:54.151Z,7.40
2022-09-13T21:59:23.925Z,6.90
2022-09-13T22:01:54.114Z,6.50
2022-09-13T22:04:27.395Z,6.00
2022-09-13T22:06:56.596Z,6.80
2022-09-13T22:09:27.331Z,5.90
2022-09-13T22:11:56.632Z,5.80
2022-09-13T22:14:26.653Z,6.70
2022-09-13T22:16:55.165Z,5.30
2022-09-13T22:19:26.930Z,5.60
2022-09-13T22:21:59.318Z,5.70
2022-09-13T22:24:32.218Z,5.80
2022-09-13T22:27:01.181Z,5.40
2022-09-13T22:29:29.990Z,5.70
2022-09-13T22:31:58.569Z,6.70
2022-09-13T22:34:30.855Z,6.20
2022-09-13T22:37:00.091Z,6.70
2022-09-13T22:39:28.617Z,6.90
2022-09-13T22:41:56.960Z,5.70
2022-09-13T22:44:25.254Z,6.60
2022-09-13T22:46:53.697Z,5.90
2022-09-13T22:49:22.059Z,5.90
2022-09-13T22:51:50.866Z,4.90
2022-09-13T22:54:19.548Z,5.20
2022-09-13T22:56:48.471Z,5.70
2022-09-13T22:59:21.561Z,5.00
2022-09-13T23:01:50.309Z,5.50
2022-09-13T23:04:18.737Z,5.30
2022-09-13T23:06:47.336Z,5.70
2022-09-13T23:09:18.894Z,5.50
2022-09-13T23:11:48.273Z,5.40
2022-09-13T23:14:20.094Z,5.20
2022-09-13T23:16:51.360Z,7.20
2022-09-13T23:19:22.471Z,6.40
2022-09-13T23:21:53.676Z,6.80
2022-09-13T23:24:24.193Z,6.10
2022-09-13T23:26:54.947Z,7.00
2022-09-13T23:29:23.396Z,5.70
2022-09-13T23:31:52.211Z,5.80
2022-09-13T23:34:20.687Z,6.30
2022-09-13T23:36:49.023Z,6.50
2022-09-13T23:39:19.620Z,7.00
2022-09-13T23:41:49.246Z,6.30
2022-09-13T23:44:18.345Z,6.70
2022-09-13T23:46:46.790Z,6.00
2022-09-13T23:49:15.735Z,6.70
2022-09-13T23:51:44.062Z,6.90
2022-09-13T23:54:14.024Z,7.60
2022-09-13T23:56:42.998Z,6.50
2022-09-13T23:59:13.416Z,7.20
